sensor_id;sensor_type;location;lat;lon;timestamp;P1;durP1;ratioP1;P2;durP2;ratioP2
8737;SDS011;4405;49.272;8.590;2022-11-22T00:01:32;7.47;;;3.73;;
8737;SDS011;4405;49.272;8.590;2022-11-22T00:03:59;5.30;;;3.37;;
8737;SDS011;4405;49.272;8.590;2022-11-22T00:06:26;7.20;;;3.90;;
8737;SDS011;4405;49.272;8.590;2022-11-22T00:08:52;7.90;;;4.13;;
8737;SDS011;4405;49.272;8.590;2022-11-22T00:11:18;5.87;;;3.67;;
8737;SDS011;4405;49.272;8.590;2022-11-22T00:13:45;4.80;;;3.27;;
8737;SDS011;4405;49.272;8.590;2022-11-22T00:16:11;7.97;;;3.30;;
8737;SDS011;4405;49.272;8.590;2022-11-22T00:18:37;3.83;;;3.00;;
8737;SDS011;4405;49.272;8.590;2022-11-22T00:21:06;6.60;;;4.00;;
8737;SDS011;4405;49.272;8.590;2022-11-22T00:23:32;6.10;;;3.53;;
8737;SDS011;4405;49.272;8.590;2022-11-22T00:25:59;7.23;;;3.40;;
8737;SDS011;4405;49.272;8.590;2022-11-22T00:28:25;6.13;;;3.50;;
8737;SDS011;4405;49.272;8.590;2022-11-22T00:30:51;4.47;;;3.50;;
8737;SDS011;4405;49.272;8.590;2022-11-22T00:33:18;3.87;;;3.30;;
8737;SDS011;4405;49.272;8.590;2022-11-22T00:35:44;3.67;;;3.10;;
8737;SDS011;4405;49.272;8.590;2022-11-22T00:38:12;4.40;;;3.37;;
8737;SDS011;4405;49.272;8.590;2022-11-22T00:40:38;5.60;;;3.20;;
8737;SDS011;4405;49.272;8.590;2022-11-22T00:43:04;4.50;;;3.00;;
8737;SDS011;4405;49.272;8.590;2022-11-22T00:45:31;5.00;;;3.10;;
8737;SDS011;4405;49.272;8.590;2022-11-22T00:47:57;3.73;;;2.53;;
8737;SDS011;4405;49.272;8.590;2022-11-22T00:50:23;3.53;;;2.73;;
8737;SDS011;4405;49.272;8.590;2022-11-22T00:52:50;4.83;;;2.97;;
8737;SDS011;4405;49.272;8.590;2022-11-22T00:55:17;3.60;;;3.00;;
8737;SDS011;4405;49.272;8.590;2022-11-22T00:57:44;3.50;;;2.90;;
8737;SDS011;4405;49.272;8.590;2022-11-22T01:00:10;4.33;;;2.60;;
8737;SDS011;4405;49.272;8.590;2022-11-22T01:02:37;6.30;;;2.70;;
8737;SDS011;4405;49.272;8.590;2022-11-22T01:05:04;3.53;;;2.90;;
8737;SDS011;4405;49.272;8.590;2022-11-22T01:07:30;3.87;;;2.97;;
8737;SDS011;4405;49.272;8.590;2022-11-22T01:09:56;3.70;;;2.70;;
8737;SDS011;4405;49.272;8.590;2022-11-22T01:12:24;2.87;;;2.57;;
8737;SDS011;4405;49.272;8.590;2022-11-22T01:14:50;5.63;;;3.17;;
8737;SDS011;4405;49.272;8.590;2022-11-22T01:17:17;4.20;;;2.53;;
8737;SDS011;4405;49.272;8.590;2022-11-22T01:19:44;4.73;;;2.73;;
8737;SDS011;4405;49.272;8.590;2022-11-22T01:22:10;3.77;;;2.30;;
8737;SDS011;4405;49.272;8.590;2022-11-22T01:24:37;6.77;;;2.40;;
8737;SDS011;4405;49.272;8.590;2022-11-22T01:27:03;2.63;;;2.20;;
8737;SDS011;4405;49.272;8.590;2022-11-22T01:29:31;2.77;;;2.07;;
8737;SDS011;4405;49.272;8.590;2022-11-22T01:31:57;6.60;;;2.10;;
8737;SDS011;4405;49.272;8.590;2022-11-22T01:34:24;3.07;;;2.37;;
8737;SDS011;4405;49.272;8.590;2022-11-22T01:36:50;5.00;;;2.10;;
8737;SDS011;4405;49.272;8.590;2022-11-22T01:39:17;6.27;;;2.67;;
8737;SDS011;4405;49.272;8.590;2022-11-22T01:41:43;3.53;;;2.43;;
8737;SDS011;4405;49.272;8.590;2022-11-22T01:44:22;3.87;;;2.27;;
8737;SDS011;4405;49.272;8.590;2022-11-22T01:46:51;3.77;;;2.40;;
8737;SDS011;4405;49.272;8.590;2022-11-22T01:49:22;3.13;;;2.50;;
8737;SDS011;4405;49.272;8.590;2022-11-22T01:51:49;6.87;;;2.77;;
8737;SDS011;4405;49.272;8.590;2022-11-22T01:54:17;3.87;;;2.97;;
8737;SDS011;4405;49.272;8.590;2022-11-22T01:56:45;8.53;;;2.63;;
8737;SDS011;4405;49.272;8.590;2022-11-22T01:59:13;5.80;;;2.63;;
8737;SDS011;4405;49.272;8.590;2022-11-22T02:01:41;3.17;;;2.67;;
8737;SDS011;4405;49.272;8.590;2022-11-22T02:04:09;3.60;;;2.90;;
8737;SDS011;4405;49.272;8.590;2022-11-22T02:06:39;5.50;;;4.30;;
8737;SDS011;4405;49.272;8.590;2022-11-22T02:09:08;3.80;;;3.50;;
8737;SDS011;4405;49.272;8.590;2022-11-22T02:11:36;6.23;;;3.30;;
8737;SDS011;4405;49.272;8.590;2022-11-22T02:14:03;3.63;;;2.63;;
8737;SDS011;4405;49.272;8.590;2022-11-22T02:16:30;3.33;;;2.50;;
8737;SDS011;4405;49.272;8.590;2022-11-22T02:18:56;3.47;;;2.50;;
8737;SDS011;4405;49.272;8.590;2022-11-22T02:21:24;3.53;;;2.70;;
8737;SDS011;4405;49.272;8.590;2022-11-22T02:23:53;3.10;;;2.23;;
8737;SDS011;4405;49.272;8.590;2022-11-22T02:26:21;4.00;;;2.30;;
8737;SDS011;4405;49.272;8.590;2022-11-22T02:28:49;8.47;;;3.23;;
8737;SDS011;4405;49.272;8.590;2022-11-22T02:31:33;5.90;;;2.40;;
8737;SDS011;4405;49.272;8.590;2022-11-22T02:34:00;2.50;;;2.40;;
8737;SDS011;4405;49.272;8.590;2022-11-22T02:36:26;3.77;;;2.60;;
8737;SDS011;4405;49.272;8.590;2022-11-22T02:38:52;6.00;;;2.67;;
8737;SDS011;4405;49.272;8.590;2022-11-22T02:41:19;3.10;;;2.50;;
8737;SDS011;4405;49.272;8.590;2022-11-22T02:43:46;4.50;;;2.70;;
8737;SDS011;4405;49.272;8.590;2022-11-22T02:46:13;3.57;;;2.83;;
8737;SDS011;4405;49.272;8.590;2022-11-22T02:48:44;7.10;;;2.90;;
8737;SDS011;4405;49.272;8.590;2022-11-22T02:51:11;3.57;;;2.90;;
8737;SDS011;4405;49.272;8.590;2022-11-22T02:53:40;3.57;;;3.20;;
8737;SDS011;4405;49.272;8.590;2022-11-22T02:56:07;4.83;;;2.80;;
8737;SDS011;4405;49.272;8.590;2022-11-22T02:58:33;3.63;;;2.63;;
8737;SDS011;4405;49.272;8.590;2022-11-22T03:01:01;3.57;;;2.83;;
8737;SDS011;4405;49.272;8.590;2022-11-22T03:03:27;9.27;;;3.63;;
8737;SDS011;4405;49.272;8.590;2022-11-22T03:05:53;12.70;;;6.47;;
8737;SDS011;4405;49.272;8.590;2022-11-22T03:08:20;11.90;;;6.23;;
8737;SDS011;4405;49.272;8.590;2022-11-22T03:10:46;10.83;;;4.33;;
8737;SDS011;4405;49.272;8.590;2022-11-22T03:13:12;4.83;;;2.77;;
8737;SDS011;4405;49.272;8.590;2022-11-22T03:15:39;4.93;;;3.13;;
8737;SDS011;4405;49.272;8.590;2022-11-22T03:18:06;4.47;;;2.47;;
8737;SDS011;4405;49.272;8.590;2022-11-22T03:20:33;4.03;;;1.97;;
8737;SDS011;4405;49.272;8.590;2022-11-22T03:22:59;6.27;;;2.30;;
8737;SDS011;4405;49.272;8.590;2022-11-22T03:25:25;5.47;;;2.47;;
8737;SDS011;4405;49.272;8.590;2022-11-22T03:27:52;5.70;;;2.30;;
8737;SDS011;4405;49.272;8.590;2022-11-22T03:30:18;7.30;;;2.20;;
8737;SDS011;4405;49.272;8.590;2022-11-22T03:32:45;7.33;;;2.30;;
8737;SDS011;4405;49.272;8.590;2022-11-22T03:35:12;7.37;;;2.63;;
8737;SDS011;4405;49.272;8.590;2022-11-22T03:37:39;5.40;;;2.23;;
8737;SDS011;4405;49.272;8.590;2022-11-22T03:40:05;5.67;;;2.23;;
8737;SDS011;4405;49.272;8.590;2022-11-22T03:42:32;6.30;;;2.40;;
8737;SDS011;4405;49.272;8.590;2022-11-22T03:44:58;8.93;;;2.20;;
8737;SDS011;4405;49.272;8.590;2022-11-22T03:47:25;5.47;;;2.17;;
8737;SDS011;4405;49.272;8.590;2022-11-22T03:49:51;6.20;;;2.10;;
8737;SDS011;4405;49.272;8.590;2022-11-22T03:52:19;5.27;;;2.00;;
8737;SDS011;4405;49.272;8.590;2022-11-22T03:54:45;5.73;;;2.10;;
8737;SDS011;4405;49.272;8.590;2022-11-22T03:57:11;6.43;;;2.13;;
8737;SDS011;4405;49.272;8.590;2022-11-22T03:59:38;6.40;;;2.20;;
8737;SDS011;4405;49.272;8.590;2022-11-22T04:02:04;6.50;;;2.33;;
8737;SDS011;4405;49.272;8.590;2022-11-22T04:04:30;5.93;;;2.17;;
8737;SDS011;4405;49.272;8.590;2022-11-22T04:06:57;8.07;;;2.40;;
8737;SDS011;4405;49.272;8.590;2022-11-22T04:09:24;5.13;;;2.00;;
8737;SDS011;4405;49.272;8.590;2022-11-22T04:11:51;10.30;;;2.67;;
8737;SDS011;4405;49.272;8.590;2022-11-22T04:14:17;11.23;;;2.53;;
8737;SDS011;4405;49.272;8.590;2022-11-22T04:17:01;8.60;;;2.20;;
8737;SDS011;4405;49.272;8.590;2022-11-22T04:19:27;9.67;;;2.27;;
8737;SDS011;4405;49.272;8.590;2022-11-22T04:21:53;6.70;;;2.50;;
8737;SDS011;4405;49.272;8.590;2022-11-22T04:24:19;10.10;;;2.87;;
8737;SDS011;4405;49.272;8.590;2022-11-22T04:27:04;8.63;;;2.37;;
8737;SDS011;4405;49.272;8.590;2022-11-22T04:29:30;9.83;;;2.30;;
8737;SDS011;4405;49.272;8.590;2022-11-22T04:31:57;9.33;;;2.50;;
8737;SDS011;4405;49.272;8.590;2022-11-22T04:34:41;10.23;;;2.30;;
8737;SDS011;4405;49.272;8.590;2022-11-22T04:37:07;9.07;;;2.10;;
8737;SDS011;4405;49.272;8.590;2022-11-22T04:39:34;8.77;;;2.43;;
8737;SDS011;4405;49.272;8.590;2022-11-22T04:42:00;10.83;;;2.50;;
8737;SDS011;4405;49.272;8.590;2022-11-22T04:44:45;6.53;;;2.40;;
8737;SDS011;4405;49.272;8.590;2022-11-22T04:47:12;13.13;;;2.80;;
8737;SDS011;4405;49.272;8.590;2022-11-22T04:49:59;10.87;;;2.23;;
8737;SDS011;4405;49.272;8.590;2022-11-22T04:52:25;8.00;;;2.10;;
8737;SDS011;4405;49.272;8.590;2022-11-22T04:55:20;7.73;;;2.30;;
8737;SDS011;4405;49.272;8.590;2022-11-22T04:57:47;8.57;;;2.40;;
8737;SDS011;4405;49.272;8.590;2022-11-22T05:00:15;8.63;;;2.30;;
8737;SDS011;4405;49.272;8.590;2022-11-22T05:02:42;10.73;;;2.20;;
8737;SDS011;4405;49.272;8.590;2022-11-22T05:05:08;9.83;;;2.40;;
8737;SDS011;4405;49.272;8.590;2022-11-22T05:07:34;12.87;;;2.00;;
8737;SDS011;4405;49.272;8.590;2022-11-22T05:10:01;7.90;;;2.33;;
8737;SDS011;4405;49.272;8.590;2022-11-22T05:12:27;7.87;;;2.43;;
8737;SDS011;4405;49.272;8.590;2022-11-22T05:14:53;10.87;;;3.10;;
8737;SDS011;4405;49.272;8.590;2022-11-22T05:17:21;8.37;;;2.50;;
8737;SDS011;4405;49.272;8.590;2022-11-22T05:19:47;12.37;;;3.23;;
8737;SDS011;4405;49.272;8.590;2022-11-22T05:22:14;13.37;;;2.90;;
8737;SDS011;4405;49.272;8.590;2022-11-22T05:24:40;11.47;;;2.70;;
8737;SDS011;4405;49.272;8.590;2022-11-22T05:27:06;13.70;;;3.10;;
8737;SDS011;4405;49.272;8.590;2022-11-22T05:29:32;8.80;;;2.33;;
8737;SDS011;4405;49.272;8.590;2022-11-22T05:31:58;8.40;;;2.30;;
8737;SDS011;4405;49.272;8.590;2022-11-22T05:34:26;7.60;;;2.33;;
8737;SDS011;4405;49.272;8.590;2022-11-22T05:36:52;8.60;;;2.40;;
8737;SDS011;4405;49.272;8.590;2022-11-22T05:39:19;4.37;;;2.20;;
8737;SDS011;4405;49.272;8.590;2022-11-22T05:41:45;12.70;;;2.50;;
8737;SDS011;4405;49.272;8.590;2022-11-22T05:44:20;11.40;;;2.50;;
8737;SDS011;4405;49.272;8.590;2022-11-22T05:46:47;9.70;;;2.27;;
8737;SDS011;4405;49.272;8.590;2022-11-22T05:49:13;13.80;;;2.50;;
8737;SDS011;4405;49.272;8.590;2022-11-22T05:51:41;13.00;;;2.50;;
8737;SDS011;4405;49.272;8.590;2022-11-22T05:54:07;10.03;;;2.60;;
8737;SDS011;4405;49.272;8.590;2022-11-22T05:56:34;9.13;;;2.80;;
8737;SDS011;4405;49.272;8.590;2022-11-22T05:59:00;7.53;;;2.13;;
8737;SDS011;4405;49.272;8.590;2022-11-22T06:01:26;8.20;;;2.23;;
8737;SDS011;4405;49.272;8.590;2022-11-22T06:03:53;11.70;;;2.77;;
8737;SDS011;4405;49.272;8.590;2022-11-22T06:06:19;8.23;;;2.10;;
8737;SDS011;4405;49.272;8.590;2022-11-22T06:08:47;10.30;;;2.40;;
8737;SDS011;4405;49.272;8.590;2022-11-22T06:11:15;11.90;;;2.80;;
8737;SDS011;4405;49.272;8.590;2022-11-22T06:13:43;8.70;;;2.70;;
8737;SDS011;4405;49.272;8.590;2022-11-22T06:16:09;12.80;;;2.70;;
8737;SDS011;4405;49.272;8.590;2022-11-22T06:18:36;11.10;;;3.00;;
8737;SDS011;4405;49.272;8.590;2022-11-22T06:21:03;8.90;;;2.80;;
8737;SDS011;4405;49.272;8.590;2022-11-22T06:23:30;6.47;;;2.47;;
8737;SDS011;4405;49.272;8.590;2022-11-22T06:25:58;7.57;;;2.37;;
8737;SDS011;4405;49.272;8.590;2022-11-22T06:28:25;11.43;;;2.70;;
8737;SDS011;4405;49.272;8.590;2022-11-22T06:30:51;11.07;;;2.73;;
8737;SDS011;4405;49.272;8.590;2022-11-22T06:33:17;14.20;;;2.80;;
8737;SDS011;4405;49.272;8.590;2022-11-22T06:35:44;13.13;;;2.43;;
8737;SDS011;4405;49.272;8.590;2022-11-22T06:38:10;5.40;;;2.50;;
8737;SDS011;4405;49.272;8.590;2022-11-22T06:40:36;10.10;;;2.47;;
8737;SDS011;4405;49.272;8.590;2022-11-22T06:43:04;6.33;;;2.33;;
8737;SDS011;4405;49.272;8.590;2022-11-22T06:45:31;10.73;;;2.40;;
8737;SDS011;4405;49.272;8.590;2022-11-22T06:47:57;10.83;;;2.50;;
8737;SDS011;4405;49.272;8.590;2022-11-22T06:50:24;5.83;;;2.10;;
8737;SDS011;4405;49.272;8.590;2022-11-22T06:52:50;10.67;;;2.70;;
8737;SDS011;4405;49.272;8.590;2022-11-22T06:55:16;15.43;;;2.73;;
8737;SDS011;4405;49.272;8.590;2022-11-22T06:57:43;7.70;;;2.37;;
8737;SDS011;4405;49.272;8.590;2022-11-22T07:00:12;8.40;;;2.13;;
8737;SDS011;4405;49.272;8.590;2022-11-22T07:02:38;9.37;;;2.87;;
8737;SDS011;4405;49.272;8.590;2022-11-22T07:05:05;7.23;;;2.20;;
8737;SDS011;4405;49.272;8.590;2022-11-22T07:07:31;9.57;;;2.20;;
8737;SDS011;4405;49.272;8.590;2022-11-22T07:09:58;7.00;;;2.20;;
8737;SDS011;4405;49.272;8.590;2022-11-22T07:12:24;7.23;;;2.30;;
8737;SDS011;4405;49.272;8.590;2022-11-22T07:14:51;8.20;;;2.43;;
8737;SDS011;4405;49.272;8.590;2022-11-22T07:17:18;8.33;;;5.07;;
8737;SDS011;4405;49.272;8.590;2022-11-22T07:19:45;9.53;;;2.40;;
8737;SDS011;4405;49.272;8.590;2022-11-22T07:22:11;6.67;;;2.40;;
8737;SDS011;4405;49.272;8.590;2022-11-22T07:24:37;7.87;;;2.93;;
8737;SDS011;4405;49.272;8.590;2022-11-22T07:27:04;9.20;;;2.27;;
8737;SDS011;4405;49.272;8.590;2022-11-22T07:29:30;15.00;;;2.57;;
8737;SDS011;4405;49.272;8.590;2022-11-22T07:31:56;8.47;;;2.43;;
8737;SDS011;4405;49.272;8.590;2022-11-22T07:34:24;16.33;;;3.87;;
8737;SDS011;4405;49.272;8.590;2022-11-22T07:36:50;10.90;;;2.13;;
8737;SDS011;4405;49.272;8.590;2022-11-22T07:39:17;9.93;;;2.83;;
8737;SDS011;4405;49.272;8.590;2022-11-22T07:41:43;10.77;;;2.63;;
8737;SDS011;4405;49.272;8.590;2022-11-22T07:44:09;12.30;;;3.27;;
8737;SDS011;4405;49.272;8.590;2022-11-22T07:46:36;11.50;;;2.70;;
8737;SDS011;4405;49.272;8.590;2022-11-22T07:49:02;13.60;;;2.93;;
8737;SDS011;4405;49.272;8.590;2022-11-22T07:51:30;7.77;;;2.93;;
8737;SDS011;4405;49.272;8.590;2022-11-22T07:53:56;8.37;;;3.40;;
8737;SDS011;4405;49.272;8.590;2022-11-22T07:56:22;6.27;;;2.90;;
8737;SDS011;4405;49.272;8.590;2022-11-22T07:58:49;13.60;;;3.23;;
8737;SDS011;4405;49.272;8.590;2022-11-22T08:01:16;11.90;;;3.53;;
8737;SDS011;4405;49.272;8.590;2022-11-22T08:03:42;12.37;;;3.90;;
8737;SDS011;4405;49.272;8.590;2022-11-22T08:06:09;9.20;;;3.33;;
8737;SDS011;4405;49.272;8.590;2022-11-22T08:08:37;8.73;;;2.67;;
8737;SDS011;4405;49.272;8.590;2022-11-22T08:11:04;11.03;;;2.57;;
8737;SDS011;4405;49.272;8.590;2022-11-22T08:13:31;7.00;;;2.20;;
8737;SDS011;4405;49.272;8.590;2022-11-22T08:16:00;8.10;;;1.93;;
8737;SDS011;4405;49.272;8.590;2022-11-22T08:18:27;8.63;;;1.90;;
8737;SDS011;4405;49.272;8.590;2022-11-22T08:21:00;6.83;;;2.30;;
8737;SDS011;4405;49.272;8.590;2022-11-22T08:23:26;5.70;;;2.20;;
8737;SDS011;4405;49.272;8.590;2022-11-22T08:25:54;7.50;;;2.30;;
8737;SDS011;4405;49.272;8.590;2022-11-22T08:28:22;10.07;;;2.43;;
8737;SDS011;4405;49.272;8.590;2022-11-22T08:30:48;11.90;;;2.87;;
8737;SDS011;4405;49.272;8.590;2022-11-22T08:33:15;8.87;;;2.97;;
8737;SDS011;4405;49.272;8.590;2022-11-22T08:35:41;8.47;;;2.63;;
8737;SDS011;4405;49.272;8.590;2022-11-22T08:38:07;12.77;;;6.37;;
8737;SDS011;4405;49.272;8.590;2022-11-22T08:40:34;8.57;;;3.00;;
8737;SDS011;4405;49.272;8.590;2022-11-22T08:43:02;6.90;;;3.23;;
8737;SDS011;4405;49.272;8.590;2022-11-22T08:45:28;7.77;;;3.10;;
8737;SDS011;4405;49.272;8.590;2022-11-22T08:47:56;8.83;;;2.83;;
8737;SDS011;4405;49.272;8.590;2022-11-22T08:50:23;7.93;;;3.07;;
8737;SDS011;4405;49.272;8.590;2022-11-22T08:52:49;10.93;;;2.00;;
8737;SDS011;4405;49.272;8.590;2022-11-22T08:55:15;5.70;;;2.30;;
8737;SDS011;4405;49.272;8.590;2022-11-22T08:57:42;7.33;;;2.40;;
8737;SDS011;4405;49.272;8.590;2022-11-22T09:00:10;10.37;;;2.83;;
8737;SDS011;4405;49.272;8.590;2022-11-22T09:02:37;10.73;;;2.13;;
8737;SDS011;4405;49.272;8.590;2022-11-22T09:05:03;6.33;;;2.27;;
8737;SDS011;4405;49.272;8.590;2022-11-22T09:07:30;6.23;;;2.23;;
8737;SDS011;4405;49.272;8.590;2022-11-22T09:09:56;7.83;;;2.30;;
8737;SDS011;4405;49.272;8.590;2022-11-22T09:12:22;7.07;;;2.27;;
8737;SDS011;4405;49.272;8.590;2022-11-22T09:14:49;7.83;;;2.07;;
8737;SDS011;4405;49.272;8.590;2022-11-22T09:17:16;6.77;;;2.33;;
8737;SDS011;4405;49.272;8.590;2022-11-22T09:19:43;6.03;;;2.43;;
8737;SDS011;4405;49.272;8.590;2022-11-22T09:22:09;12.20;;;2.27;;
8737;SDS011;4405;49.272;8.590;2022-11-22T09:24:35;7.27;;;2.40;;
8737;SDS011;4405;49.272;8.590;2022-11-22T09:27:02;7.13;;;2.47;;
8737;SDS011;4405;49.272;8.590;2022-11-22T09:29:28;7.93;;;1.80;;
8737;SDS011;4405;49.272;8.590;2022-11-22T09:31:54;6.17;;;1.93;;
8737;SDS011;4405;49.272;8.590;2022-11-22T09:34:22;3.60;;;2.40;;
8737;SDS011;4405;49.272;8.590;2022-11-22T09:36:49;5.83;;;2.10;;
8737;SDS011;4405;49.272;8.590;2022-11-22T09:39:15;7.83;;;2.23;;
8737;SDS011;4405;49.272;8.590;2022-11-22T09:41:58;5.33;;;2.10;;
8737;SDS011;4405;49.272;8.590;2022-11-22T09:44:31;6.53;;;2.20;;
8737;SDS011;4405;49.272;8.590;2022-11-22T09:47:00;6.13;;;2.40;;
8737;SDS011;4405;49.272;8.590;2022-11-22T09:49:32;7.53;;;2.63;;
8737;SDS011;4405;49.272;8.590;2022-11-22T09:52:05;6.17;;;2.10;;
8737;SDS011;4405;49.272;8.590;2022-11-22T09:54:37;4.87;;;1.93;;
8737;SDS011;4405;49.272;8.590;2022-11-22T09:57:07;5.67;;;1.90;;
8737;SDS011;4405;49.272;8.590;2022-11-22T09:59:35;3.90;;;1.93;;
8737;SDS011;4405;49.272;8.590;2022-11-22T10:02:04;5.33;;;2.43;;
8737;SDS011;4405;49.272;8.590;2022-11-22T10:04:34;5.97;;;1.83;;
8737;SDS011;4405;49.272;8.590;2022-11-22T10:07:03;4.67;;;1.90;;
8737;SDS011;4405;49.272;8.590;2022-11-22T10:09:33;6.27;;;2.00;;
8737;SDS011;4405;49.272;8.590;2022-11-22T10:12:02;8.00;;;2.10;;
8737;SDS011;4405;49.272;8.590;2022-11-22T10:14:34;4.20;;;1.87;;
8737;SDS011;4405;49.272;8.590;2022-11-22T10:17:04;7.33;;;2.23;;
8737;SDS011;4405;49.272;8.590;2022-11-22T10:19:36;6.43;;;2.10;;
8737;SDS011;4405;49.272;8.590;2022-11-22T10:22:07;5.70;;;1.97;;
8737;SDS011;4405;49.272;8.590;2022-11-22T10:24:35;9.87;;;5.27;;
8737;SDS011;4405;49.272;8.590;2022-11-22T10:27:02;5.23;;;2.83;;
8737;SDS011;4405;49.272;8.590;2022-11-22T10:29:30;4.13;;;2.90;;
8737;SDS011;4405;49.272;8.590;2022-11-22T10:32:01;11.97;;;6.20;;
8737;SDS011;4405;49.272;8.590;2022-11-22T10:34:34;12.83;;;4.97;;
8737;SDS011;4405;49.272;8.590;2022-11-22T10:37:06;4.13;;;2.10;;
8737;SDS011;4405;49.272;8.590;2022-11-22T10:39:43;8.63;;;4.20;;
8737;SDS011;4405;49.272;8.590;2022-11-22T10:42:16;5.97;;;4.13;;
8737;SDS011;4405;49.272;8.590;2022-11-22T10:44:46;7.77;;;2.50;;
8737;SDS011;4405;49.272;8.590;2022-11-22T10:47:19;5.00;;;2.00;;
8737;SDS011;4405;49.272;8.590;2022-11-22T10:49:51;7.13;;;2.50;;
8737;SDS011;4405;49.272;8.590;2022-11-22T10:52:24;5.27;;;1.63;;
8737;SDS011;4405;49.272;8.590;2022-11-22T10:54:55;7.17;;;3.73;;
8737;SDS011;4405;49.272;8.590;2022-11-22T10:57:27;8.33;;;2.00;;
8737;SDS011;4405;49.272;8.590;2022-11-22T11:00:01;4.10;;;2.20;;
8737;SDS011;4405;49.272;8.590;2022-11-22T11:02:33;4.13;;;1.60;;
8737;SDS011;4405;49.272;8.590;2022-11-22T11:05:01;8.17;;;1.90;;
8737;SDS011;4405;49.272;8.590;2022-11-22T11:07:31;3.30;;;1.57;;
8737;SDS011;4405;49.272;8.590;2022-11-22T11:09:59;5.30;;;1.70;;
8737;SDS011;4405;49.272;8.590;2022-11-22T11:12:28;3.97;;;1.57;;
8737;SDS011;4405;49.272;8.590;2022-11-22T11:14:56;7.07;;;1.93;;
8737;SDS011;4405;49.272;8.590;2022-11-22T11:17:25;6.77;;;2.20;;
8737;SDS011;4405;49.272;8.590;2022-11-22T11:19:53;5.00;;;2.13;;
8737;SDS011;4405;49.272;8.590;2022-11-22T11:22:20;5.37;;;2.30;;
8737;SDS011;4405;49.272;8.590;2022-11-22T11:24:49;7.30;;;1.57;;
8737;SDS011;4405;49.272;8.590;2022-11-22T11:27:15;6.87;;;1.70;;
8737;SDS011;4405;49.272;8.590;2022-11-22T11:29:43;6.13;;;2.00;;
8737;SDS011;4405;49.272;8.590;2022-11-22T11:32:12;8.00;;;2.23;;
8737;SDS011;4405;49.272;8.590;2022-11-22T11:34:39;5.67;;;1.77;;
8737;SDS011;4405;49.272;8.590;2022-11-22T11:37:08;7.73;;;2.47;;
8737;SDS011;4405;49.272;8.590;2022-11-22T11:39:36;3.70;;;1.90;;
8737;SDS011;4405;49.272;8.590;2022-11-22T11:42:19;6.63;;;2.40;;
8737;SDS011;4405;49.272;8.590;2022-11-22T11:44:45;5.33;;;1.50;;
8737;SDS011;4405;49.272;8.590;2022-11-22T11:47:17;9.53;;;2.60;;
8737;SDS011;4405;49.272;8.590;2022-11-22T11:49:48;4.57;;;2.03;;
8737;SDS011;4405;49.272;8.590;2022-11-22T11:52:17;4.70;;;1.70;;
8737;SDS011;4405;49.272;8.590;2022-11-22T11:54:44;7.40;;;1.90;;
8737;SDS011;4405;49.272;8.590;2022-11-22T11:57:14;9.27;;;2.17;;
8737;SDS011;4405;49.272;8.590;2022-11-22T11:59:41;4.77;;;1.87;;
8737;SDS011;4405;49.272;8.590;2022-11-22T12:02:09;3.90;;;1.97;;
8737;SDS011;4405;49.272;8.590;2022-11-22T12:04:44;7.27;;;1.70;;
8737;SDS011;4405;49.272;8.590;2022-11-22T12:07:15;2.87;;;1.60;;
8737;SDS011;4405;49.272;8.590;2022-11-22T12:09:43;6.93;;;3.23;;
8737;SDS011;4405;49.272;8.590;2022-11-22T12:12:17;4.70;;;1.90;;
8737;SDS011;4405;49.272;8.590;2022-11-22T12:14:45;4.00;;;2.10;;
8737;SDS011;4405;49.272;8.590;2022-11-22T12:17:16;11.03;;;1.90;;
8737;SDS011;4405;49.272;8.590;2022-11-22T12:19:48;4.87;;;1.83;;
8737;SDS011;4405;49.272;8.590;2022-11-22T12:22:17;4.73;;;2.10;;
8737;SDS011;4405;49.272;8.590;2022-11-22T12:24:47;4.67;;;1.87;;
8737;SDS011;4405;49.272;8.590;2022-11-22T12:27:18;6.60;;;2.87;;
8737;SDS011;4405;49.272;8.590;2022-11-22T12:29:44;6.40;;;1.80;;
8737;SDS011;4405;49.272;8.590;2022-11-22T12:32:11;4.90;;;1.80;;
8737;SDS011;4405;49.272;8.590;2022-11-22T12:34:47;2.03;;;1.50;;
8737;SDS011;4405;49.272;8.590;2022-11-22T12:37:15;5.27;;;1.97;;
8737;SDS011;4405;49.272;8.590;2022-11-22T12:39:44;6.77;;;1.90;;
8737;SDS011;4405;49.272;8.590;2022-11-22T12:42:12;3.50;;;1.97;;
8737;SDS011;4405;49.272;8.590;2022-11-22T12:44:43;6.00;;;1.97;;
8737;SDS011;4405;49.272;8.590;2022-11-22T12:47:10;8.07;;;3.50;;
8737;SDS011;4405;49.272;8.590;2022-11-22T12:49:40;10.07;;;5.20;;
8737;SDS011;4405;49.272;8.590;2022-11-22T12:52:08;4.67;;;2.80;;
8737;SDS011;4405;49.272;8.590;2022-11-22T12:54:39;6.20;;;2.30;;
8737;SDS011;4405;49.272;8.590;2022-11-22T12:57:09;2.47;;;1.67;;
8737;SDS011;4405;49.272;8.590;2022-11-22T12:59:40;6.13;;;2.13;;
8737;SDS011;4405;49.272;8.590;2022-11-22T13:02:12;6.77;;;2.47;;
8737;SDS011;4405;49.272;8.590;2022-11-22T13:04:43;8.53;;;5.03;;
8737;SDS011;4405;49.272;8.590;2022-11-22T13:07:12;8.53;;;5.27;;
8737;SDS011;4405;49.272;8.590;2022-11-22T13:09:41;7.97;;;3.37;;
8737;SDS011;4405;49.272;8.590;2022-11-22T13:12:12;4.97;;;2.27;;
8737;SDS011;4405;49.272;8.590;2022-11-22T13:14:40;4.60;;;1.50;;
8737;SDS011;4405;49.272;8.590;2022-11-22T13:17:07;5.53;;;1.33;;
8737;SDS011;4405;49.272;8.590;2022-11-22T13:19:38;1.40;;;1.30;;
8737;SDS011;4405;49.272;8.590;2022-11-22T13:22:07;6.27;;;1.43;;
8737;SDS011;4405;49.272;8.590;2022-11-22T13:24:38;4.30;;;1.40;;
8737;SDS011;4405;49.272;8.590;2022-11-22T13:27:08;1.73;;;1.13;;
8737;SDS011;4405;49.272;8.590;2022-11-22T13:29:38;2.47;;;1.30;;
8737;SDS011;4405;49.272;8.590;2022-11-22T13:32:06;2.97;;;1.30;;
8737;SDS011;4405;49.272;8.590;2022-11-22T13:34:41;2.83;;;1.50;;
8737;SDS011;4405;49.272;8.590;2022-11-22T13:37:23;2.90;;;1.60;;
8737;SDS011;4405;49.272;8.590;2022-11-22T13:39:50;5.03;;;2.67;;
8737;SDS011;4405;49.272;8.590;2022-11-22T13:42:17;4.17;;;1.50;;
8737;SDS011;4405;49.272;8.590;2022-11-22T13:44:48;4.43;;;1.60;;
8737;SDS011;4405;49.272;8.590;2022-11-22T13:47:35;2.73;;;1.27;;
8737;SDS011;4405;49.272;8.590;2022-11-22T13:50:03;3.70;;;1.83;;
8737;SDS011;4405;49.272;8.590;2022-11-22T13:52:50;3.70;;;1.20;;
8737;SDS011;4405;49.272;8.590;2022-11-22T13:55:23;6.50;;;1.80;;
8737;SDS011;4405;49.272;8.590;2022-11-22T13:57:50;2.50;;;1.10;;
8737;SDS011;4405;49.272;8.590;2022-11-22T14:05:53;2.67;;;1.80;;
8737;SDS011;4405;49.272;8.590;2022-11-22T14:08:30;3.23;;;1.50;;
8737;SDS011;4405;49.272;8.590;2022-11-22T14:11:00;4.63;;;1.17;;
8737;SDS011;4405;49.272;8.590;2022-11-22T14:13:32;2.30;;;1.40;;
8737;SDS011;4405;49.272;8.590;2022-11-22T14:16:08;2.67;;;1.30;;
8737;SDS011;4405;49.272;8.590;2022-11-22T14:18:44;2.50;;;1.30;;
8737;SDS011;4405;49.272;8.590;2022-11-22T14:21:16;1.17;;;1.10;;
8737;SDS011;4405;49.272;8.590;2022-11-22T14:23:48;2.83;;;1.20;;
8737;SDS011;4405;49.272;8.590;2022-11-22T14:26:19;3.17;;;1.00;;
8737;SDS011;4405;49.272;8.590;2022-11-22T14:28:59;2.67;;;1.00;;
8737;SDS011;4405;49.272;8.590;2022-11-22T14:31:31;3.40;;;1.00;;
8737;SDS011;4405;49.272;8.590;2022-11-22T14:34:18;1.03;;;0.90;;
8737;SDS011;4405;49.272;8.590;2022-11-22T14:37:32;0.90;;;0.90;;
8737;SDS011;4405;49.272;8.590;2022-11-22T14:45:11;1.80;;;0.90;;
8737;SDS011;4405;49.272;8.590;2022-11-22T14:47:39;1.83;;;1.20;;
8737;SDS011;4405;49.272;8.590;2022-11-22T14:50:08;0.90;;;0.90;;
8737;SDS011;4405;49.272;8.590;2022-11-22T14:52:36;2.73;;;1.30;;
8737;SDS011;4405;49.272;8.590;2022-11-22T14:55:03;1.77;;;1.10;;
8737;SDS011;4405;49.272;8.590;2022-11-22T14:57:33;1.57;;;0.87;;
8737;SDS011;4405;49.272;8.590;2022-11-22T15:00:06;1.30;;;1.13;;
8737;SDS011;4405;49.272;8.590;2022-11-22T15:05:49;1.90;;;1.20;;
8737;SDS011;4405;49.272;8.590;2022-11-22T15:08:22;1.80;;;1.00;;
8737;SDS011;4405;49.272;8.590;2022-11-22T15:11:02;1.43;;;0.90;;
8737;SDS011;4405;49.272;8.590;2022-11-22T15:13:44;3.67;;;1.30;;
8737;SDS011;4405;49.272;8.590;2022-11-22T15:16:14;1.10;;;0.93;;
8737;SDS011;4405;49.272;8.590;2022-11-22T15:18:46;1.93;;;1.00;;
8737;SDS011;4405;49.272;8.590;2022-11-22T15:21:14;1.80;;;1.00;;
8737;SDS011;4405;49.272;8.590;2022-11-22T15:23:42;2.23;;;1.23;;
8737;SDS011;4405;49.272;8.590;2022-11-22T15:26:11;2.97;;;1.03;;
8737;SDS011;4405;49.272;8.590;2022-11-22T15:28:43;1.07;;;0.93;;
8737;SDS011;4405;49.272;8.590;2022-11-22T15:31:12;2.07;;;1.10;;
8737;SDS011;4405;49.272;8.590;2022-11-22T15:33:39;4.20;;;0.83;;
8737;SDS011;4405;49.272;8.590;2022-11-22T15:36:08;1.67;;;1.20;;